Time;durP1;ratioP1;P1;durP2;ratioP2;P2;SDS_P1;SDS_P2;PMS_P1;PMS_P2;Temp;Humidity;BMP_temperature;BMP_pressure;BME280_temperature;BME280_humidity;BME280_pressure;Samples;Min_cycle;Max_cycle;Signal;HPM_P1;HPM_P2
2021/04/28 00:02:12;;;;;;;5.07;4.00;;;;;;;8.20;60.05;99095.26;622109;229;24855;-79
2021/04/28 00:04:39;;;;;;;5.37;3.73;;;;;;;8.33;58.67;99078.78;633522;225;24877;-77
2021/04/28 00:07:07;;;;;;;11.40;3.83;;;;;;;8.47;58.96;99080.46;632240;225;24816;-77
2021/04/28 00:09:35;;;;;;;8.40;3.80;;;;;;;8.56;57.81;99072.52;620999;229;24899;-78
2021/04/28 00:12:04;;;;;;;4.97;3.50;;;;;;;8.58;58.03;99064.09;630234;225;24797;-78
2021/04/28 00:14:32;;;;;;;8.17;4.53;;;;;;;8.55;58.47;99073.97;629635;225;24940;-78
2021/04/28 00:16:59;;;;;;;9.20;3.80;;;;;;;8.50;58.21;99073.66;635581;225;27157;-77
2021/04/28 00:19:28;;;;;;;7.87;3.70;;;;;;;8.48;58.37;99060.86;634690;225;24866;-78
2021/04/28 00:21:56;;;;;;;4.30;3.50;;;;;;;8.43;58.18;99067.48;614373;229;24985;-77
2021/04/28 00:24:24;;;;;;;4.87;3.70;;;;;;;8.44;58.47;99066.50;633405;225;24866;-78
2021/04/28 00:26:52;;;;;;;4.40;3.53;;;;;;;8.49;58.35;99053.90;615136;230;24882;-79
2021/04/28 00:29:20;;;;;;;9.70;3.50;;;;;;;8.51;57.93;99063.13;636947;225;24870;-78
2021/04/28 00:31:48;;;;;;;12.00;4.23;;;;;;;8.44;58.63;99061.32;633889;224;24884;-78
2021/04/28 00:34:16;;;;;;;5.45;3.30;;;;;;;8.47;58.02;99049.37;618610;229;32986;-78
2021/04/28 00:36:44;;;;;;;6.33;4.33;;;;;;;8.42;58.78;99059.38;636165;225;23707;-77
2021/04/28 00:39:12;;;;;;;5.63;4.00;;;;;;;8.30;59.35;99054.50;634378;224;24839;-78
2021/04/28 00:41:40;;;;;;;4.53;3.77;;;;;;;8.32;58.63;99057.73;632463;222;24851;-78
2021/04/28 00:44:08;;;;;;;6.83;3.53;;;;;;;8.40;58.29;99052.26;638777;225;24899;-78
2021/04/28 00:46:35;;;;;;;8.60;3.80;;;;;;;8.29;58.42;99048.16;618365;230;24880;-77
2021/04/28 00:49:04;;;;;;;7.33;4.50;;;;;;;8.41;58.63;99046.10;629876;225;32772;-78
2021/04/28 00:51:31;;;;;;;9.15;4.17;;;;;;;8.44;58.94;99046.59;630315;225;32866;-78
2021/04/28 00:53:59;;;;;;;8.15;4.45;;;;;;;8.50;58.11;99039.97;632096;223;32853;-77
2021/04/28 00:56:27;;;;;;;4.50;3.97;;;;;;;8.44;58.69;99041.89;636975;225;25876;-77
2021/04/28 00:58:55;;;;;;;6.23;4.20;;;;;;;8.33;59.14;99039.92;634295;225;24866;-78
2021/04/28 01:01:23;;;;;;;10.20;4.27;;;;;;;8.16;58.92;99040.03;634888;225;24831;-78
2021/04/28 01:03:51;;;;;;;5.30;3.73;;;;;;;8.04;60.26;99044.72;633236;225;24866;-78
2021/04/28 01:06:19;;;;;;;6.77;4.33;;;;;;;8.05;59.98;99042.45;621141;229;24906;-77
2021/04/28 01:08:48;;;;;;;6.90;4.10;;;;;;;8.04;59.63;99044.72;619207;229;24884;-78
2021/04/28 01:11:16;;;;;;;9.00;4.70;;;;;;;7.99;59.98;99041.77;614831;229;24857;-77
2021/04/28 01:13:43;;;;;;;8.80;4.13;;;;;;;7.81;61.22;99041.08;614527;230;24849;-78
2021/04/28 01:16:11;;;;;;;7.37;3.73;;;;;;;7.71;61.41;99040.70;633761;225;24851;-78
2021/04/28 01:18:39;;;;;;;4.97;3.83;;;;;;;7.56;61.53;99040.97;637491;225;24869;-78
2021/04/28 01:21:07;;;;;;;5.67;3.73;;;;;;;7.60;61.68;99050.06;632978;225;24807;-78
2021/04/28 01:23:35;;;;;;;7.07;3.60;;;;;;;7.53;61.56;99039.18;622574;229;24862;-77
2021/04/28 01:26:03;;;;;;;4.90;3.70;;;;;;;7.46;62.54;99046.77;614603;229;24877;-78
2021/04/28 01:28:31;;;;;;;5.53;3.73;;;;;;;7.33;62.69;99054.94;618285;230;24865;-78
2021/04/28 01:30:59;;;;;;;6.57;3.53;;;;;;;7.41;62.44;99052.86;614601;230;24941;-78
2021/04/28 01:33:27;;;;;;;8.27;3.93;;;;;;;7.36;63.13;99050.74;630030;226;24834;-77
2021/04/28 01:35:55;;;;;;;6.20;3.83;;;;;;;7.30;63.23;99047.94;620475;229;27062;-78
2021/04/28 01:38:23;;;;;;;6.47;3.77;;;;;;;7.52;62.10;99049.20;636220;225;24821;-77
2021/04/28 01:40:51;;;;;;;5.10;3.30;;;;;;;7.47;62.34;99052.27;635079;226;24806;-78
2021/04/28 01:43:19;;;;;;;5.17;3.20;;;;;;;7.36;63.35;99055.11;632409;225;24782;-77
2021/04/28 01:45:49;;;;;;;4.63;3.80;;;;;;;7.34;63.32;99053.16;637339;225;28048;-77
2021/04/28 01:48:17;;;;;;;5.83;4.37;;;;;;;7.39;63.31;99053.50;617996;229;24884;-77
2021/04/28 01:50:45;;;;;;;6.60;3.47;;;;;;;7.39;63.14;99045.73;619434;229;24863;-78
2021/04/28 01:53:14;;;;;;;5.40;3.40;;;;;;;7.38;63.65;99050.59;634085;225;24821;-78
2021/04/28 01:55:42;;;;;;;9.00;3.80;;;;;;;7.27;63.47;99050.84;636744;224;24870;-78
2021/04/28 01:58:10;;;;;;;9.07;3.80;;;;;;;7.25;63.86;99048.41;616588;229;24867;-77
2021/04/28 02:00:38;;;;;;;6.50;4.30;;;;;;;7.17;64.20;99050.94;634537;225;29826;-77
2021/04/28 02:03:06;;;;;;;4.70;3.60;;;;;;;7.17;63.84;99050.13;634423;223;24912;-78
2021/04/28 02:05:34;;;;;;;6.13;4.30;;;;;;;7.20;64.25;99047.25;638927;224;24861;-78
2021/04/28 02:08:02;;;;;;;5.13;3.63;;;;;;;7.18;64.42;99050.00;624243;229;24889;-77
2021/04/28 02:10:29;;;;;;;6.97;4.77;;;;;;;7.19;63.47;99041.75;624843;228;24838;-78
2021/04/28 02:12:57;;;;;;;4.20;3.40;;;;;;;7.21;63.97;99048.87;634745;225;25254;-78
2021/04/28 02:15:25;;;;;;;6.80;4.27;;;;;;;6.97;64.50;99047.74;637207;224;24846;-78
2021/04/28 02:17:53;;;;;;;6.73;4.00;;;;;;;6.94;64.79;99051.12;636671;224;24861;-78
2021/04/28 02:20:21;;;;;;;5.23;3.73;;;;;;;6.86;64.94;99050.56;635401;223;26068;-78
2021/04/28 02:22:49;;;;;;;9.63;3.87;;;;;;;6.74;66.03;99051.27;618182;229;24902;-77
2021/04/28 02:25:17;;;;;;;7.00;4.33;;;;;;;6.73;66.12;99048.84;626476;225;24803;-77
2021/04/28 02:27:45;;;;;;;6.00;4.30;;;;;;;6.57;66.52;99048.23;618783;229;24853;-78
2021/04/28 02:30:14;;;;;;;8.67;4.27;;;;;;;6.75;66.07;99052.89;625239;229;24891;-78
2021/04/28 02:32:42;;;;;;;7.50;4.37;;;;;;;6.73;66.40;99044.97;618931;229;25048;-78
2021/04/28 02:35:11;;;;;;;8.70;4.10;;;;;;;6.69;66.75;99044.46;615423;230;24848;-78
2021/04/28 02:37:39;;;;;;;7.53;4.23;;;;;;;6.64;66.88;99044.59;624226;229;28063;-78
2021/04/28 02:40:08;;;;;;;6.60;4.43;;;;;;;6.61;66.75;99042.28;632208;225;24848;-77
2021/04/28 02:42:36;;;;;;;6.43;4.37;;;;;;;6.48;67.07;99038.80;634307;225;24853;-78
2021/04/28 02:45:05;;;;;;;6.47;4.27;;;;;;;6.40;68.16;99039.53;634947;225;24868;-78
2021/04/28 02:47:33;;;;;;;9.20;4.80;;;;;;;6.49;67.49;99040.42;617427;229;24862;-77
2021/04/28 02:50:01;;;;;;;5.00;4.20;;;;;;;6.40;68.01;99044.70;629875;227;24864;-78
2021/04/28 02:52:29;;;;;;;7.63;4.87;;;;;;;6.34;68.48;99045.30;633476;221;24867;-78
2021/04/28 02:54:57;;;;;;;5.77;4.40;;;;;;;6.25;69.29;99051.33;631763;225;25074;-78
2021/04/28 02:57:25;;;;;;;6.73;5.10;;;;;;;6.45;68.58;99047.63;613282;230;33029;-77
2021/04/28 02:59:53;;;;;;;7.57;4.70;;;;;;;6.59;68.04;99042.43;612313;229;32852;-77
2021/04/28 03:02:21;;;;;;;8.83;5.35;;;;;;;6.65;67.81;99038.45;628848;225;32864;-78
2021/04/28 03:04:49;;;;;;;7.35;4.22;;;;;;;6.68;67.45;99036.86;630115;225;32878;-78
2021/04/28 03:07:17;;;;;;;7.15;5.03;;;;;;;6.77;66.84;99031.62;629647;225;32802;-77
2021/04/28 03:09:45;;;;;;;6.17;4.57;;;;;;;6.49;68.36;99028.33;634154;225;23712;-77
2021/04/28 03:12:13;;;;;;;6.77;4.63;;;;;;;6.43;67.82;99034.55;635259;222;24912;-78
2021/04/28 03:14:41;;;;;;;7.73;5.03;;;;;;;6.55;68.10;99032.07;618799;229;24862;-78
2021/04/28 03:17:09;;;;;;;10.00;4.60;;;;;;;6.48;68.78;99029.28;620551;227;24873;-78
2021/04/28 03:19:38;;;;;;;7.50;4.30;;;;;;;6.52;67.93;99029.80;630616;225;24850;-78
2021/04/28 03:22:06;;;;;;;6.20;4.20;;;;;;;6.37;68.88;99041.13;621062;229;24885;-78
2021/04/28 03:24:34;;;;;;;8.20;4.90;;;;;;;6.24;68.75;99035.51;623809;229;24875;-78
2021/04/28 03:27:07;;;;;;;10.30;4.90;;;;;;;6.27;69.11;99031.34;619722;229;24919;-78
2021/04/28 03:29:35;;;;;;;6.73;4.70;;;;;;;6.26;69.32;99043.91;634968;224;28024;-78
2021/04/28 03:32:03;;;;;;;7.07;5.23;;;;;;;6.07;70.13;99047.92;633767;225;24848;-78
2021/04/28 03:34:31;;;;;;;12.43;6.00;;;;;;;5.90;70.79;99046.42;618486;229;24880;-78
2021/04/28 03:36:59;;;;;;;8.40;5.10;;;;;;;5.88;71.03;99042.34;627480;228;24848;-78
2021/04/28 03:39:27;;;;;;;7.73;4.90;;;;;;;6.03;70.20;99050.44;631762;225;25893;-78
2021/04/28 03:41:55;;;;;;;7.10;4.37;;;;;;;6.00;70.32;99048.15;627542;228;24851;-78
2021/04/28 03:44:23;;;;;;;8.63;4.80;;;;;;;5.78;71.34;99049.34;637696;225;24858;-78
2021/04/28 03:46:51;;;;;;;13.40;5.50;;;;;;;5.66;71.42;99059.03;620182;229;24872;-78
2021/04/28 03:49:19;;;;;;;6.80;5.40;;;;;;;5.62;72.23;99062.34;636357;225;24858;-78
2021/04/28 03:51:47;;;;;;;6.70;4.77;;;;;;;5.58;72.36;99065.36;619868;229;24850;-78
2021/04/28 03:54:15;;;;;;;10.27;5.40;;;;;;;5.55;72.58;99070.81;630305;225;24856;-77
2021/04/28 03:56:43;;;;;;;7.30;5.23;;;;;;;5.51;72.52;99066.89;633668;225;24880;-78
2021/04/28 03:59:11;;;;;;;7.33;4.90;;;;;;;5.45;72.70;99067.44;637574;225;24847;-78
2021/04/28 04:01:39;;;;;;;6.60;4.67;;;;;;;5.65;71.81;99066.44;633409;225;25983;-78
2021/04/28 04:04:07;;;;;;;8.90;5.33;;;;;;;5.61;72.41;99065.07;637479;225;24832;-78
2021/04/28 04:06:35;;;;;;;9.67;5.23;;;;;;;5.60;72.09;99068.12;624466;229;27981;-78
2021/04/28 04:09:03;;;;;;;6.47;4.93;;;;;;;5.55;72.44;99069.52;630796;225;25523;-78
2021/04/28 04:11:31;;;;;;;6.43;5.10;;;;;;;5.43;73.00;99065.01;618608;229;24979;-78
2021/04/28 04:13:59;;;;;;;7.67;6.00;;;;;;;5.42;73.27;99067.73;626018;224;24818;-78
2021/04/28 04:16:27;;;;;;;11.70;5.23;;;;;;;5.40;72.83;99073.50;627920;225;24859;-78
2021/04/28 04:18:55;;;;;;;9.47;6.03;;;;;;;5.41;73.04;99076.41;633872;225;24845;-77
2021/04/28 04:21:23;;;;;;;9.40;5.23;;;;;;;5.55;72.33;99072.91;628674;225;24831;-78
2021/04/28 04:23:53;;;;;;;7.43;5.27;;;;;;;5.70;72.20;99073.73;617381;229;24846;-78
2021/04/28 04:26:19;;;;;;;7.40;5.00;;;;;;;5.73;72.01;99069.09;614094;230;24835;-73
2021/04/28 04:28:47;;;;;;;11.60;5.30;;;;;;;5.94;71.07;99071.48;624109;228;27044;-73
2021/04/28 04:31:14;;;;;;;10.17;5.90;;;;;;;6.05;70.70;99068.69;619057;230;25129;-74
2021/04/28 04:33:42;;;;;;;7.83;5.50;;;;;;;6.07;71.03;99069.86;619886;229;33071;-73
2021/04/28 04:36:10;;;;;;;5.97;5.37;;;;;;;6.12;70.73;99072.33;620813;229;23746;-73
2021/04/28 04:38:38;;;;;;;6.90;6.20;;;;;;;6.15;70.87;99066.87;621615;229;24885;-73
2021/04/28 04:41:06;;;;;;;8.83;5.87;;;;;;;6.17;70.60;99068.82;636599;221;26056;-73
2021/04/28 04:43:34;;;;;;;8.17;5.40;;;;;;;6.72;69.73;99067.89;615355;229;33823;-76
2021/04/28 04:46:02;;;;;;;10.33;5.20;;;;;;;6.71;69.68;99068.37;629180;225;24839;-73
2021/04/28 04:48:29;;;;;;;9.47;5.50;;;;;;;6.97;68.81;99065.83;636829;225;24818;-73
2021/04/28 04:50:57;;;;;;;7.73;5.20;;;;;;;7.12;68.85;99058.34;635985;225;26929;-74
2021/04/28 04:53:25;;;;;;;6.87;5.23;;;;;;;7.30;68.63;99058.28;625345;225;24818;-73
2021/04/28 04:55:53;;;;;;;6.97;5.13;;;;;;;7.65;67.60;99049.11;613038;229;34803;-73
2021/04/28 04:58:21;;;;;;;9.00;5.33;;;;;;;7.45;67.28;99052.39;625233;228;26962;-73
2021/04/28 05:00:49;;;;;;;6.50;5.50;;;;;;;7.49;67.80;99052.91;634225;225;24847;-73
2021/04/28 05:03:17;;;;;;;5.77;5.10;;;;;;;7.68;67.18;99046.20;632771;225;26068;-73
2021/04/28 05:05:45;;;;;;;9.27;5.50;;;;;;;7.88;66.32;99049.83;630327;225;32824;-73
2021/04/28 05:08:12;;;;;;;8.47;5.10;;;;;;;8.12;66.19;99047.80;625602;225;33122;-73
2021/04/28 05:10:41;;;;;;;9.90;5.00;;;;;;;8.22;65.49;99047.99;627706;225;32818;-75
2021/04/28 05:13:09;;;;;;;10.63;5.72;;;;;;;8.24;66.05;99052.52;629261;225;33151;-75
2021/04/28 05:15:36;;;;;;;10.90;5.40;;;;;;;8.31;65.30;99052.72;627852;225;33588;-75
2021/04/28 05:18:06;;;;;;;10.80;5.60;;;;;;;8.45;65.66;99052.12;631371;225;32904;-75
2021/04/28 05:20:34;;;;;;;9.10;5.53;;;;;;;8.47;65.23;99046.29;616947;229;23754;-75
2021/04/28 05:23:02;;;;;;;7.00;5.10;;;;;;;8.56;64.97;99047.09;625702;225;24845;-75
2021/04/28 05:25:30;;;;;;;10.53;5.60;;;;;;;8.59;65.09;99053.27;637021;223;24896;-75
2021/04/28 05:27:58;;;;;;;6.27;5.00;;;;;;;8.82;65.00;99051.63;632083;225;24913;-75
2021/04/28 05:30:26;;;;;;;9.80;4.97;;;;;;;8.82;65.29;99054.23;620333;229;26188;-75
2021/04/28 05:32:54;;;;;;;8.55;5.70;;;;;;;9.09;64.90;99048.37;613454;230;32964;-75
2021/04/28 05:35:22;;;;;;;9.50;5.00;;;;;;;9.07;65.51;99047.73;623347;228;23709;-75
2021/04/28 05:37:50;;;;;;;9.00;5.47;;;;;;;9.21;65.47;99053.55;634497;225;25167;-75
2021/04/28 05:40:18;;;;;;;10.93;5.20;;;;;;;9.34;65.39;99052.55;619683;230;24873;-75
2021/04/28 05:42:47;;;;;;;7.13;4.87;;;;;;;9.41;64.12;99054.78;632890;225;25140;-75
2021/04/28 05:45:15;;;;;;;14.03;6.37;;;;;;;9.69;63.79;99051.29;622780;229;24882;-75
2021/04/28 05:47:43;;;;;;;10.27;5.33;;;;;;;9.75;63.37;99049.83;634948;224;24873;-75
2021/04/28 05:50:12;;;;;;;6.57;4.90;;;;;;;9.85;62.54;99050.91;636316;225;25009;-73
2021/04/28 05:52:40;;;;;;;8.87;4.90;;;;;;;10.05;62.16;99052.93;621043;229;28074;-73
2021/04/28 05:55:09;;;;;;;8.90;5.67;;;;;;;10.20;61.35;99044.41;634244;225;24881;-74
2021/04/28 05:57:37;;;;;;;7.97;5.53;;;;;;;10.42;62.44;99047.56;635112;223;28014;-73
2021/04/28 06:00:06;;;;;;;6.63;5.47;;;;;;;10.46;60.67;99035.83;633041;225;24854;-73
2021/04/28 06:02:34;;;;;;;7.70;6.07;;;;;;;10.51;60.59;99034.80;632579;225;31335;-73
2021/04/28 06:05:02;;;;;;;8.63;6.00;;;;;;;10.33;61.52;99035.09;616007;229;24866;-73
2021/04/28 06:07:30;;;;;;;8.37;5.50;;;;;;;10.55;61.11;99032.16;635039;225;24834;-73
2021/04/28 06:09:57;;;;;;;11.50;5.93;;;;;;;10.49;60.81;99035.47;638017;224;24838;-73
2021/04/28 06:12:25;;;;;;;13.57;5.73;;;;;;;10.44;60.44;99030.00;625039;229;25004;-73
2021/04/28 06:14:53;;;;;;;8.73;6.10;;;;;;;10.55;60.55;99028.76;616190;229;24915;-73
2021/04/28 06:17:21;;;;;;;9.60;5.83;;;;;;;10.74;61.20;99032.69;621790;229;24879;-73
2021/04/28 06:19:49;;;;;;;8.53;6.00;;;;;;;10.52;60.33;99029.11;629084;226;24928;-74
2021/04/28 06:22:17;;;;;;;8.80;5.50;;;;;;;10.79;61.54;99029.88;632038;225;24890;-73
2021/04/28 06:24:45;;;;;;;9.63;6.10;;;;;;;10.84;59.97;99027.57;630761;225;35807;-73
2021/04/28 06:27:13;;;;;;;9.80;5.90;;;;;;;11.00;61.34;99029.21;618222;229;24844;-73
2021/04/28 06:29:41;;;;;;;9.80;6.00;;;;;;;11.43;59.06;99030.73;627836;225;32886;-74
2021/04/28 06:32:09;;;;;;;12.13;6.17;;;;;;;11.15;60.15;99028.73;637926;225;24948;-73
2021/04/28 06:34:36;;;;;;;15.30;6.17;;;;;;;11.27;59.87;99027.31;618771;227;24910;-73
2021/04/28 06:37:04;;;;;;;9.00;6.03;;;;;;;11.37;60.48;99028.83;620228;229;24946;-73
2021/04/28 06:39:32;;;;;;;9.30;6.30;;;;;;;11.53;59.24;99020.83;636849;225;25981;-73
2021/04/28 06:42:00;;;;;;;11.30;5.87;;;;;;;11.89;60.50;99020.42;619217;230;25203;-74
2021/04/28 06:44:28;;;;;;;12.20;6.70;;;;;;;12.39;59.15;99010.13;628151;225;43605;-74
2021/04/28 06:46:56;;;;;;;8.58;6.30;;;;;;;12.29;56.96;99016.94;616076;229;33046;-73
2021/04/28 06:49:24;;;;;;;10.57;6.10;;;;;;;12.40;57.09;99011.73;616217;230;23719;-74
2021/04/28 06:51:52;;;;;;;11.10;6.60;;;;;;;12.75;55.81;99005.61;611695;229;43772;-74
2021/04/28 06:54:20;;;;;;;9.07;6.20;;;;;;;12.79;57.57;98998.20;629801;225;25983;-73
2021/04/28 06:56:47;;;;;;;11.57;5.90;;;;;;;12.65;56.20;98995.98;636714;225;29067;-74
2021/04/28 06:59:16;;;;;;;12.90;7.13;;;;;;;13.14;54.81;98987.81;637618;225;28086;-71
2021/04/28 07:01:45;;;;;;;11.13;7.10;;;;;;;13.41;54.60;98981.77;616268;229;24840;-72
2021/04/28 07:04:13;;;;;;;9.63;6.70;;;;;;;13.51;54.69;98983.53;636276;224;24849;-72
2021/04/28 07:06:41;;;;;;;11.30;6.80;;;;;;;13.12;54.34;98974.14;614472;229;24860;-74
2021/04/28 07:09:09;;;;;;;7.90;6.30;;;;;;;12.79;55.52;98975.52;625114;229;24896;-73
2021/04/28 07:11:37;;;;;;;8.73;6.20;;;;;;;13.32;53.82;98980.30;632452;225;24859;-73
2021/04/28 07:14:05;;;;;;;9.90;6.90;;;;;;;13.36;55.03;98982.83;635341;225;24857;-72
2021/04/28 07:16:33;;;;;;;12.70;6.60;;;;;;;13.35;54.97;98983.83;631085;225;27030;-72
2021/04/28 07:19:01;;;;;;;8.97;6.30;;;;;;;13.17;54.45;98976.48;632218;225;24847;-74
2021/04/28 07:21:29;;;;;;;11.20;6.20;;;;;;;13.44;54.68;98983.17;635299;225;24847;-72
2021/04/28 07:23:57;;;;;;;8.73;6.37;;;;;;;13.82;55.16;98980.92;634031;225;27036;-73
2021/04/28 07:26:25;;;;;;;11.87;6.37;;;;;;;13.51;54.13;98970.94;621099;229;27038;-74
2021/04/28 07:28:53;;;;;;;8.97;6.60;;;;;;;13.72;53.54;98981.79;619100;229;24929;-71
2021/04/28 07:31:21;;;;;;;10.25;7.00;;;;;;;13.84;53.66;98978.41;615948;229;43720;-72
2021/04/28 07:33:48;;;;;;;13.43;6.40;;;;;;;13.90;54.98;98980.23;619602;229;24888;-72
2021/04/28 07:36:16;;;;;;;10.88;6.75;;;;;;;14.12;53.53;98980.09;612015;223;32909;-72
2021/04/28 07:38:44;;;;;;;9.10;6.67;;;;;;;13.92;54.65;98983.45;621502;229;26913;-71
2021/04/28 07:41:12;;;;;;;9.37;6.60;;;;;;;14.14;53.58;98980.70;634563;225;24865;-71
2021/04/28 07:43:40;;;;;;;11.83;6.70;;;;;;;14.34;53.13;98977.59;638714;224;28020;-72
2021/04/28 07:46:08;;;;;;;17.03;7.20;;;;;;;14.23;52.38;98975.09;630511;225;24859;-72
2021/04/28 07:48:36;;;;;;;10.77;6.43;;;;;;;14.34;53.77;98981.52;620111;230;28116;-72
2021/04/28 07:51:04;;;;;;;9.87;6.33;;;;;;;14.20;53.03;98982.00;617521;230;24952;-72
2021/04/28 07:53:32;;;;;;;14.10;6.80;;;;;;;14.26;53.11;98973.38;615094;230;24204;-71
2021/04/28 07:55:59;;;;;;;10.45;6.70;;;;;;;14.57;52.25;98973.83;626859;225;32928;-72
2021/04/28 07:58:27;;;;;;;11.70;6.90;;;;;;;14.46;53.02;98968.69;635592;225;25841;-72
2021/04/28 08:00:55;;;;;;;12.70;7.93;;;;;;;14.95;54.72;98981.36;628645;225;24842;-72
2021/04/28 08:03:24;;;;;;;9.33;6.57;;;;;;;15.24;53.35;98977.47;618453;227;24893;-73
2021/04/28 08:05:52;;;;;;;13.13;7.60;;;;;;;15.09;53.25;98979.53;620127;229;23923;-72
2021/04/28 08:08:20;;;;;;;8.80;7.27;;;;;;;14.62;52.01;98965.66;621438;230;23890;-72
2021/04/28 08:10:48;;;;;;;8.43;7.05;;;;;;;15.18;51.92;98976.97;628175;225;32834;-72
2021/04/28 08:13:16;;;;;;;12.90;7.60;;;;;;;15.03;51.33;98974.58;624155;225;33378;-72
2021/04/28 08:15:45;;;;;;;12.43;8.38;;;;;;;15.40;51.49;98968.36;631476;225;32963;-72
2021/04/28 08:18:12;;;;;;;13.87;7.17;;;;;;;15.23;51.29;98971.13;636130;225;22752;-72
2021/04/28 08:20:39;;;;;;;12.70;7.70;;;;;;;15.87;51.82;98970.30;635575;225;23858;-73
2021/04/28 08:23:07;;;;;;;9.03;7.03;;;;;;;15.72;52.85;98978.44;621467;229;24971;-72
2021/04/28 08:25:35;;;;;;;10.00;7.13;;;;;;;15.96;52.61;98974.29;632499;225;23838;-72
2021/04/28 08:28:03;;;;;;;10.23;7.30;;;;;;;15.92;52.17;98973.91;635508;225;23880;-72
2021/04/28 08:30:31;;;;;;;19.30;8.37;;;;;;;16.04;50.52;98973.52;633368;225;23879;-72
2021/04/28 08:32:59;;;;;;;12.57;7.47;;;;;;;15.97;52.13;98975.38;622066;229;23911;-72
2021/04/28 08:35:27;;;;;;;19.07;7.90;;;;;;;16.00;50.24;98969.71;631381;226;23874;-72
2021/04/28 08:37:55;;;;;;;9.83;7.07;;;;;;;16.32;50.40;98956.58;614922;229;23900;-72
2021/04/28 08:40:23;;;;;;;10.87;7.77;;;;;;;16.40;50.96;98952.91;616550;230;23920;-72
2021/04/28 08:42:51;;;;;;;12.57;8.83;;;;;;;16.40;50.57;98958.16;614557;229;27039;-72
2021/04/28 08:45:18;;;;;;;10.93;7.93;;;;;;;16.35;50.72;98960.12;635428;225;23867;-71
2021/04/28 08:47:46;;;;;;;9.43;7.60;;;;;;;16.58;51.38;98957.69;620304;229;23890;-72
2021/04/28 08:50:15;;;;;;;10.50;7.20;;;;;;;16.46;51.29;98951.53;617685;229;23888;-72
2021/04/28 08:52:43;;;;;;;13.13;8.30;;;;;;;16.68;50.38;98958.56;622787;229;24893;-72
2021/04/28 08:55:11;;;;;;;11.93;7.60;;;;;;;17.15;50.31;98951.83;628884;225;24860;-72
2021/04/28 08:57:39;;;;;;;12.70;8.03;;;;;;;16.97;48.84;98945.25;632614;225;24128;-72
2021/04/28 09:00:08;;;;;;;12.30;8.60;;;;;;;17.06;50.93;98947.09;627680;225;32932;-72
2021/04/28 09:02:36;;;;;;;13.28;8.50;;;;;;;17.38;49.82;98941.97;631880;225;33111;-72
2021/04/28 09:05:06;;;;;;;10.20;8.00;;;;;;;17.44;48.42;98944.22;637621;224;22807;-72
2021/04/28 09:07:33;;;;;;;12.83;8.47;;;;;;;17.92;47.05;98938.19;622215;229;24539;-72
2021/04/28 09:10:03;;;;;;;11.43;8.30;;;;;;;18.08;49.25;98938.86;636182;225;26084;-72
2021/04/28 09:12:30;;;;;;;14.30;8.00;;;;;;;17.95;47.07;98930.64;631409;225;23869;-72
2021/04/28 09:14:58;;;;;;;12.80;8.57;;;;;;;18.06;47.09;98926.44;623799;228;23979;-72
2021/04/28 09:17:26;;;;;;;13.85;9.40;;;;;;;18.54;47.81;98928.91;628175;225;33113;-72
2021/04/28 09:20:13;;;;;;;12.35;8.95;;;;;;;18.44;47.01;98922.59;612268;229;33055;-72
2021/04/28 09:22:48;;;;;;;13.27;8.83;;;;;;;18.65;46.51;98922.88;615703;229;22819;-72
2021/04/28 09:25:11;;;;;;;14.47;9.40;;;;;;;19.12;46.78;98922.02;613719;229;32927;-72
2021/04/28 09:27:42;;;;;;;11.47;9.00;;;;;;;18.82;47.82;98912.44;623755;230;23925;-73
2021/04/28 09:30:07;;;;;;;17.80;8.40;;;;;;;19.05;47.32;98914.77;630073;225;23878;-73
2021/04/28 09:32:35;;;;;;;15.57;9.00;;;;;;;18.94;45.45;98907.16;634877;225;23969;-72
2021/04/28 09:35:12;;;;;;;13.83;8.67;;;;;;;19.24;47.43;98916.20;628588;225;24849;-73
2021/04/28 09:37:51;;;;;;;12.93;10.10;;;;;;;19.24;45.21;98910.94;634176;226;23897;-73
2021/04/28 09:40:19;;;;;;;22.23;10.30;;;;;;;19.48;43.62;98900.61;637732;225;24938;-72
2021/04/28 09:42:53;;;;;;;19.07;10.23;;;;;;;19.54;45.11;98895.72;636919;225;23882;-72
2021/04/28 09:45:39;;;;;;;18.37;9.90;;;;;;;19.09;44.02;98894.30;635808;225;23927;-72
2021/04/28 09:48:07;;;;;;;17.53;9.97;;;;;;;19.11;44.78;98888.79;637038;225;24132;-73
2021/04/28 09:50:35;;;;;;;16.50;9.57;;;;;;;18.67;46.36;98889.72;634784;225;23897;-72
2021/04/28 09:53:03;;;;;;;12.60;9.47;;;;;;;19.65;44.89;98893.28;614270;229;23879;-73
2021/04/28 09:55:31;;;;;;;13.90;8.97;;;;;;;20.56;42.97;98883.45;618749;230;26121;-72
2021/04/28 10:00:59;;;;;;;19.57;10.27;;;;;;;20.53;41.59;98865.41;622145;228;23920;-73
2021/04/28 10:03:43;;;;;;;24.23;10.50;;;;;;;20.56;43.61;98856.50;620836;229;23915;-72
2021/04/28 10:06:10;;;;;;;17.73;10.73;;;;;;;20.66;41.81;98859.78;616141;229;23895;-73
2021/04/28 10:08:38;;;;;;;17.10;10.33;;;;;;;20.54;42.35;98866.48;636865;225;24885;-73
2021/04/28 10:11:06;;;;;;;16.20;10.77;;;;;;;20.87;43.05;98863.51;618431;230;23888;-73
2021/04/28 10:13:41;;;;;;;17.50;9.80;;;;;;;21.84;41.01;98866.17;633084;225;24886;-72
2021/04/28 10:16:09;;;;;;;16.33;10.50;;;;;;;21.82;42.03;98860.33;635883;225;23921;-73
2021/04/28 10:18:36;;;;;;;16.23;10.10;;;;;;;21.39;43.07;98860.41;617783;229;25214;-73
2021/04/28 10:21:05;;;;;;;21.27;10.80;;;;;;;21.32;41.72;98860.09;636751;221;24132;-73
2021/04/28 10:23:32;;;;;;;14.80;9.93;;;;;;;20.94;43.27;98854.86;633813;225;27073;-74
2021/04/28 10:26:00;;;;;;;17.53;11.10;;;;;;;21.32;41.00;98852.16;621041;228;23931;-75
2021/04/28 10:28:28;;;;;;;18.12;11.90;;;;;;;21.04;40.42;98849.17;632485;224;43550;-75
2021/04/28 10:30:57;;;;;;;17.43;11.10;;;;;;;20.98;39.31;98840.13;615873;229;22770;-72
2021/04/28 10:33:24;;;;;;;14.00;9.67;;;;;;;21.16;39.81;98837.15;637859;224;23893;-73
2021/04/28 10:35:52;;;;;;;16.13;10.40;;;;;;;21.05;38.62;98834.11;617856;228;23886;-73
2021/04/28 10:38:22;;;;;;;15.53;10.73;;;;;;;21.46;38.50;98833.25;620105;229;23942;-73
2021/04/28 10:40:50;;;;;;;13.30;9.57;;;;;;;21.64;37.64;98823.62;633641;225;23878;-73
2021/04/28 10:43:20;;;;;;;14.97;10.20;;;;;;;21.57;38.22;98821.72;621400;229;23914;-73
2021/04/28 10:45:46;;;;;;;14.93;9.13;;;;;;;21.36;39.18;98810.66;618919;229;24310;-73
2021/04/28 10:48:17;;;;;;;13.90;10.50;;;;;;;21.29;39.14;98807.70;622675;225;32748;-74
2021/04/28 10:50:43;;;;;;;15.33;9.93;;;;;;;21.20;39.45;98805.19;624551;229;24889;-73
2021/04/28 10:53:18;;;;;;;14.27;9.73;;;;;;;21.20;38.31;98805.19;632044;225;23895;-72
2021/04/28 10:55:50;;;;;;;12.53;9.50;;;;;;;20.78;39.49;98799.69;632833;225;27036;-73
2021/04/28 10:58:44;;;;;;;13.20;9.50;;;;;;;20.96;37.77;98799.89;633813;224;23875;-73
2021/04/28 11:01:16;;;;;;;13.53;8.60;;;;;;;21.65;39.41;98805.37;620582;226;23829;-73
2021/04/28 11:03:45;;;;;;;14.07;9.03;;;;;;;21.58;39.10;98801.62;616151;228;23888;-73
2021/04/28 11:06:36;;;;;;;17.53;8.17;;;;;;;21.65;38.41;98798.75;631854;225;24137;-73
2021/04/28 11:09:07;;;;;;;12.07;8.53;;;;;;;21.66;37.43;98782.34;634188;225;28110;-73
2021/04/28 11:11:39;;;;;;;12.33;7.90;;;;;;;21.99;38.40;98781.29;637992;225;23883;-73
2021/04/28 11:14:23;;;;;;;15.93;8.50;;;;;;;22.25;36.63;98775.13;623935;225;32868;-73
2021/04/28 11:16:50;;;;;;;12.37;8.40;;;;;;;22.33;38.84;98769.33;636375;225;22976;-75
2021/04/28 11:19:18;;;;;;;13.83;8.93;;;;;;;22.31;36.42;98764.02;633913;225;25922;-75
2021/04/28 11:21:46;;;;;;;16.60;8.13;;;;;;;22.55;38.09;98765.73;619235;226;23890;-75
2021/04/28 11:24:14;;;;;;;17.50;9.37;;;;;;;22.39;37.28;98768.84;616900;229;23996;-75
2021/04/28 11:26:46;;;;;;;11.80;8.23;;;;;;;22.62;38.78;98772.91;619871;229;23920;-72
2021/04/28 11:29:14;;;;;;;15.27;9.23;;;;;;;22.23;37.99;98768.73;619956;229;23913;-73
2021/04/28 11:31:42;;;;;;;13.60;9.50;;;;;;;22.81;39.26;98768.75;609145;229;33065;-74
2021/04/28 11:34:17;;;;;;;11.70;8.70;;;;;;;22.12;39.76;98776.38;633217;225;23792;-73
2021/04/28 11:36:51;;;;;;;13.13;8.10;;;;;;;21.98;36.74;98759.84;636365;223;23956;-72
2021/04/28 11:39:29;;;;;;;13.00;7.93;;;;;;;22.22;37.97;98770.32;617173;230;23911;-73
2021/04/28 11:42:04;;;;;;;12.23;7.80;;;;;;;22.15;36.99;98753.88;618592;229;26039;-73
2021/04/28 11:44:32;;;;;;;9.77;7.57;;;;;;;22.27;37.50;98757.66;620299;230;23898;-73